SKW7 ELLX-EBAW
Flight info
| Callsign | SKW7 |
|---|---|
| Flight time | 0h 56m |
| Altitude | 10000 |
| Route | DIK N852 LNO |
| Aircraft | DA42/L-SDFGRY/C |
Departure
| Time | 2026-04-22 16:40 |
|---|---|
| Airport | Luxembourg-Findel International Airport (ELLX) |
Arrival
| Time | 2026-04-22 17:37 |
|---|---|
| Airport | Antwerp International Airport (Deurne) (EBAW) |
| Time | Latitude | Longitude | Altitude | Speed | Heading |
|---|---|---|---|---|---|
| 2026-04-22 16:20 | 49.62474 | 6.19906 | 1215 ft | 0 kts | 274° |
| 2026-04-22 16:24 | 49.62474 | 6.19907 | 1215 ft | 0 kts | 274° |
| 2026-04-22 16:26 | 49.62473 | 6.19907 | 1215 ft | 0 kts | 274° |
| 2026-04-22 16:28 | 49.62473 | 6.19908 | 1215 ft | 0 kts | 274° |
| 2026-04-22 16:34 | 49.62473 | 6.19909 | 1215 ft | 0 kts | 274° |
| 2026-04-22 16:34 | 49.62473 | 6.19908 | 1215 ft | 0 kts | 283° |
| 2026-04-22 16:34 | 49.62462 | 6.19931 | 1215 ft | 7 kts | 148° |
| 2026-04-22 16:34 | 49.62387 | 6.19985 | 1218 ft | 14 kts | 209° |
| 2026-04-22 16:35 | 49.62343 | 6.19870 | 1220 ft | 10 kts | 237° |
| 2026-04-22 16:35 | 49.62332 | 6.19844 | 1220 ft | 0 kts | 239° |
| 2026-04-22 16:36 | 49.62321 | 6.19812 | 1220 ft | 16 kts | 241° |
| 2026-04-22 16:36 | 49.62255 | 6.19635 | 1221 ft | 15 kts | 240° |
| 2026-04-22 16:36 | 49.62207 | 6.19553 | 1220 ft | 11 kts | 198° |
| 2026-04-22 16:36 | 49.62160 | 6.19568 | 1219 ft | 3 kts | 168° |
| 2026-04-22 16:37 | 49.62159 | 6.19569 | 1219 ft | 0 kts | 168° |
| 2026-04-22 16:37 | 49.62152 | 6.19578 | 1219 ft | 7 kts | 134° |
| 2026-04-22 16:38 | 49.62094 | 6.19660 | 1220 ft | 10 kts | 91° |
| 2026-04-22 16:38 | 49.62099 | 6.19692 | 1220 ft | 0 kts | 62° |
| 2026-04-22 16:39 | 49.62176 | 6.19902 | 1221 ft | 53 kts | 60° |
| 2026-04-22 16:39 | 49.62428 | 6.20576 | 1261 ft | 84 kts | 60° |
| 2026-04-22 16:40 | 49.62796 | 6.21335 | 1477 ft | 94 kts | 37° |
| 2026-04-22 16:40 | 49.63476 | 6.21470 | 1741 ft | 106 kts | 354° |
| 2026-04-22 16:40 | 49.65065 | 6.20883 | 1941 ft | 129 kts | 356° |
| 2026-04-22 16:41 | 49.65960 | 6.20626 | 2017 ft | 134 kts | 357° |
| 2026-04-22 16:41 | 49.66894 | 6.20381 | 1986 ft | 137 kts | 358° |
| 2026-04-22 16:41 | 49.67851 | 6.20171 | 1955 ft | 139 kts | 0° |
| 2026-04-22 16:41 | 49.68786 | 6.20018 | 1975 ft | 135 kts | 2° |
| 2026-04-22 16:42 | 49.69715 | 6.19760 | 2001 ft | 137 kts | 355° |
| 2026-04-22 16:42 | 49.70661 | 6.19466 | 1993 ft | 141 kts | 356° |
| 2026-04-22 16:42 | 49.71635 | 6.19153 | 1996 ft | 145 kts | 354° |
| 2026-04-22 16:42 | 49.72624 | 6.18853 | 1990 ft | 144 kts | 353° |
| 2026-04-22 16:43 | 49.73591 | 6.18539 | 1992 ft | 140 kts | 355° |
| 2026-04-22 16:43 | 49.74539 | 6.18202 | 1992 ft | 140 kts | 354° |
| 2026-04-22 16:43 | 49.75480 | 6.17799 | 1995 ft | 141 kts | 350° |
| 2026-04-22 16:43 | 49.76429 | 6.17339 | 1997 ft | 144 kts | 350° |
| 2026-04-22 16:44 | 49.77391 | 6.16894 | 1992 ft | 145 kts | 350° |
| 2026-04-22 16:44 | 49.78032 | 6.16606 | 1988 ft | 144 kts | 350° |
| 2026-04-22 16:44 | 49.78993 | 6.16183 | 1996 ft | 144 kts | 350° |
| 2026-04-22 16:44 | 49.79961 | 6.15743 | 1991 ft | 148 kts | 350° |
| 2026-04-22 16:45 | 49.80956 | 6.15297 | 1989 ft | 149 kts | 349° |
| 2026-04-22 16:45 | 49.81959 | 6.14844 | 1988 ft | 150 kts | 349° |
| 2026-04-22 16:45 | 49.82965 | 6.14396 | 1979 ft | 149 kts | 349° |
| 2026-04-22 16:45 | 49.83952 | 6.13955 | 1994 ft | 146 kts | 350° |
| 2026-04-22 16:46 | 49.84931 | 6.13517 | 1984 ft | 146 kts | 350° |
| 2026-04-22 16:46 | 49.85901 | 6.13085 | 1996 ft | 145 kts | 353° |
| 2026-04-22 16:46 | 49.86872 | 6.12562 | 1994 ft | 149 kts | 347° |
| 2026-04-22 16:46 | 49.87835 | 6.12015 | 1981 ft | 149 kts | 347° |
| 2026-04-22 16:47 | 49.88779 | 6.11467 | 2170 ft | 136 kts | 347° |
| 2026-04-22 16:47 | 49.89623 | 6.10979 | 2381 ft | 128 kts | 348° |
| 2026-04-22 16:47 | 49.90462 | 6.10505 | 2571 ft | 128 kts | 348° |
| 2026-04-22 16:47 | 49.91313 | 6.10024 | 2754 ft | 132 kts | 348° |
| 2026-04-22 16:48 | 49.92179 | 6.09528 | 2931 ft | 133 kts | 347° |
| 2026-04-22 16:48 | 49.93046 | 6.09031 | 3107 ft | 132 kts | 347° |
| 2026-04-22 16:48 | 49.93902 | 6.08542 | 3286 ft | 128 kts | 348° |
| 2026-04-22 16:48 | 49.94749 | 6.08059 | 3480 ft | 132 kts | 347° |
| 2026-04-22 16:49 | 49.95620 | 6.07558 | 3641 ft | 133 kts | 347° |
| 2026-04-22 16:49 | 49.96461 | 6.07073 | 3818 ft | 129 kts | 349° |
| 2026-04-22 16:49 | 49.97291 | 6.06596 | 3987 ft | 126 kts | 349° |
| 2026-04-22 16:49 | 49.98152 | 6.06115 | 4000 ft | 138 kts | 347° |
| 2026-04-22 16:50 | 49.99089 | 6.05576 | 3992 ft | 147 kts | 347° |
| 2026-04-22 16:50 | 50.00050 | 6.05025 | 3992 ft | 147 kts | 347° |
| 2026-04-22 16:50 | 50.01010 | 6.04472 | 4009 ft | 148 kts | 347° |
| 2026-04-22 16:50 | 50.01991 | 6.03910 | 4001 ft | 151 kts | 347° |
| 2026-04-22 16:51 | 50.02972 | 6.03345 | 3998 ft | 149 kts | 347° |
| 2026-04-22 16:51 | 50.03939 | 6.02785 | 3996 ft | 147 kts | 346° |
| 2026-04-22 16:51 | 50.04894 | 6.02240 | 3991 ft | 145 kts | 345° |
| 2026-04-22 16:51 | 50.05835 | 6.01699 | 4001 ft | 145 kts | 346° |
| 2026-04-22 16:52 | 50.06788 | 6.01151 | 4008 ft | 146 kts | 346° |
| 2026-04-22 16:52 | 50.07749 | 6.00598 | 4000 ft | 147 kts | 346° |
| 2026-04-22 16:52 | 50.08704 | 6.00048 | 4006 ft | 146 kts | 346° |
| 2026-04-22 16:52 | 50.09653 | 5.99500 | 4012 ft | 146 kts | 347° |
| 2026-04-22 16:53 | 50.10610 | 5.98953 | 4005 ft | 147 kts | 347° |
| 2026-04-22 16:53 | 50.11572 | 5.98399 | 4009 ft | 149 kts | 345° |
| 2026-04-22 16:53 | 50.12529 | 5.97817 | 4013 ft | 150 kts | 345° |
| 2026-04-22 16:53 | 50.13502 | 5.97249 | 4001 ft | 148 kts | 348° |
| 2026-04-22 16:54 | 50.14473 | 5.96757 | 3999 ft | 146 kts | 349° |
| 2026-04-22 16:54 | 50.15438 | 5.96219 | 4002 ft | 147 kts | 347° |
| 2026-04-22 16:54 | 50.16395 | 5.95657 | 4011 ft | 147 kts | 347° |
| 2026-04-22 16:54 | 50.17352 | 5.95084 | 4001 ft | 147 kts | 346° |
| 2026-04-22 16:55 | 50.18308 | 5.94516 | 3998 ft | 146 kts | 347° |
| 2026-04-22 16:55 | 50.19257 | 5.93963 | 4003 ft | 145 kts | 347° |
| 2026-04-22 16:55 | 50.20193 | 5.93420 | 4012 ft | 147 kts | 346° |
| 2026-04-22 16:55 | 50.21165 | 5.92865 | 4005 ft | 149 kts | 347° |
| 2026-04-22 16:56 | 50.22138 | 5.92304 | 4014 ft | 149 kts | 346° |
| 2026-04-22 16:56 | 50.23110 | 5.91732 | 4012 ft | 149 kts | 347° |
| 2026-04-22 16:56 | 50.24082 | 5.91173 | 4014 ft | 149 kts | 348° |
| 2026-04-22 16:56 | 50.25045 | 5.90616 | 4014 ft | 146 kts | 347° |
| 2026-04-22 16:57 | 50.26010 | 5.90048 | 4007 ft | 150 kts | 347° |
| 2026-04-22 16:57 | 50.26991 | 5.89488 | 4004 ft | 151 kts | 347° |
| 2026-04-22 16:57 | 50.27961 | 5.88925 | 4011 ft | 146 kts | 347° |
| 2026-04-22 16:57 | 50.28917 | 5.88365 | 4012 ft | 148 kts | 346° |
| 2026-04-22 16:58 | 50.29554 | 5.87988 | 4014 ft | 148 kts | 346° |
| 2026-04-22 16:58 | 50.30823 | 5.87257 | 4015 ft | 146 kts | 346° |
| 2026-04-22 16:58 | 50.31782 | 5.86703 | 4020 ft | 147 kts | 347° |
| 2026-04-22 16:58 | 50.32743 | 5.86146 | 4019 ft | 146 kts | 346° |
| 2026-04-22 16:59 | 50.33686 | 5.85595 | 4013 ft | 143 kts | 347° |
| 2026-04-22 16:59 | 50.34614 | 5.85052 | 4011 ft | 141 kts | 348° |
| 2026-04-22 16:59 | 50.35536 | 5.84518 | 4015 ft | 142 kts | 347° |
| 2026-04-22 16:59 | 50.36459 | 5.83977 | 4022 ft | 142 kts | 347° |
| 2026-04-22 17:00 | 50.37393 | 5.83439 | 4011 ft | 143 kts | 347° |
| 2026-04-22 17:00 | 50.39255 | 5.82339 | 4022 ft | 143 kts | 347° |
| 2026-04-22 17:00 | 50.40195 | 5.81806 | 4022 ft | 144 kts | 346° |
| 2026-04-22 17:01 | 50.41136 | 5.81259 | 4030 ft | 144 kts | 347° |
| 2026-04-22 17:01 | 50.42072 | 5.80713 | 4016 ft | 141 kts | 347° |
| 2026-04-22 17:01 | 50.42976 | 5.80179 | 4017 ft | 136 kts | 346° |
| 2026-04-22 17:01 | 50.43855 | 5.79660 | 4024 ft | 134 kts | 347° |
| 2026-04-22 17:02 | 50.44728 | 5.79149 | 4025 ft | 134 kts | 347° |
| 2026-04-22 17:02 | 50.45608 | 5.78636 | 4027 ft | 135 kts | 348° |
| 2026-04-22 17:02 | 50.46484 | 5.78125 | 4037 ft | 137 kts | 348° |
| 2026-04-22 17:02 | 50.47392 | 5.77598 | 4028 ft | 139 kts | 347° |
| 2026-04-22 17:03 | 50.48304 | 5.77061 | 4033 ft | 141 kts | 347° |
| 2026-04-22 17:03 | 50.49238 | 5.76519 | 4033 ft | 146 kts | 347° |
| 2026-04-22 17:03 | 50.50191 | 5.75965 | 4031 ft | 146 kts | 346° |
| 2026-04-22 17:03 | 50.51135 | 5.75410 | 4028 ft | 144 kts | 346° |
| 2026-04-22 17:04 | 50.52076 | 5.74855 | 4028 ft | 145 kts | 347° |
| 2026-04-22 17:04 | 50.53019 | 5.74300 | 4030 ft | 144 kts | 347° |
| 2026-04-22 17:04 | 50.53962 | 5.73747 | 4034 ft | 144 kts | 347° |
| 2026-04-22 17:04 | 50.54900 | 5.73195 | 4034 ft | 144 kts | 346° |
| 2026-04-22 17:05 | 50.55825 | 5.72651 | 4037 ft | 144 kts | 347° |
| 2026-04-22 17:05 | 50.56775 | 5.72093 | 4041 ft | 147 kts | 346° |
| 2026-04-22 17:05 | 50.57728 | 5.71533 | 4031 ft | 146 kts | 346° |
| 2026-04-22 17:05 | 50.58643 | 5.70778 | 4029 ft | 153 kts | 327° |
| 2026-04-22 17:06 | 50.59361 | 5.69518 | 4037 ft | 156 kts | 315° |
| 2026-04-22 17:06 | 50.60038 | 5.68189 | 4038 ft | 156 kts | 315° |
| 2026-04-22 17:06 | 50.60714 | 5.66855 | 4036 ft | 156 kts | 315° |
| 2026-04-22 17:06 | 50.61391 | 5.65524 | 4033 ft | 156 kts | 315° |
| 2026-04-22 17:07 | 50.62064 | 5.64199 | 4037 ft | 154 kts | 315° |
| 2026-04-22 17:07 | 50.62736 | 5.62884 | 4037 ft | 154 kts | 315° |
| 2026-04-22 17:07 | 50.63410 | 5.61562 | 4043 ft | 156 kts | 315° |
| 2026-04-22 17:07 | 50.64092 | 5.60224 | 4040 ft | 156 kts | 315° |
| 2026-04-22 17:08 | 50.64768 | 5.58902 | 4041 ft | 157 kts | 315° |
| 2026-04-22 17:08 | 50.65353 | 5.57750 | 4039 ft | 157 kts | 315° |
| 2026-04-22 17:08 | 50.65999 | 5.56475 | 4039 ft | 158 kts | 315° |
| 2026-04-22 17:08 | 50.66684 | 5.55123 | 4038 ft | 158 kts | 315° |
| 2026-04-22 17:09 | 50.67374 | 5.53765 | 4037 ft | 158 kts | 315° |
| 2026-04-22 17:09 | 50.68061 | 5.52412 | 4041 ft | 157 kts | 315° |
| 2026-04-22 17:09 | 50.68510 | 5.51523 | 4037 ft | 157 kts | 315° |
| 2026-04-22 17:09 | 50.69415 | 5.49730 | 4034 ft | 155 kts | 315° |
| 2026-04-22 17:10 | 50.70087 | 5.48408 | 4041 ft | 153 kts | 315° |
| 2026-04-22 17:10 | 50.70757 | 5.47088 | 4046 ft | 155 kts | 315° |
| 2026-04-22 17:10 | 50.71433 | 5.45752 | 4043 ft | 156 kts | 314° |
| 2026-04-22 17:10 | 50.72109 | 5.44414 | 4038 ft | 155 kts | 315° |
| 2026-04-22 17:11 | 50.72771 | 5.43105 | 4039 ft | 155 kts | 315° |
| 2026-04-22 17:11 | 50.73444 | 5.41773 | 4040 ft | 155 kts | 314° |
| 2026-04-22 17:11 | 50.74119 | 5.40437 | 4042 ft | 156 kts | 314° |
| 2026-04-22 17:11 | 50.74799 | 5.39092 | 4040 ft | 157 kts | 315° |
| 2026-04-22 17:12 | 50.75481 | 5.37737 | 4042 ft | 158 kts | 314° |
| 2026-04-22 17:12 | 50.76166 | 5.36374 | 4036 ft | 158 kts | 315° |
| 2026-04-22 17:12 | 50.76848 | 5.35027 | 4041 ft | 156 kts | 315° |
| 2026-04-22 17:12 | 50.77525 | 5.33678 | 4038 ft | 155 kts | 315° |
| 2026-04-22 17:13 | 50.78193 | 5.32345 | 4037 ft | 155 kts | 314° |
| 2026-04-22 17:13 | 50.78850 | 5.31035 | 4037 ft | 153 kts | 315° |
| 2026-04-22 17:13 | 50.79516 | 5.29717 | 4036 ft | 154 kts | 315° |
| 2026-04-22 17:13 | 50.80185 | 5.28391 | 4031 ft | 154 kts | 315° |
| 2026-04-22 17:14 | 50.80850 | 5.27066 | 4038 ft | 153 kts | 314° |
| 2026-04-22 17:14 | 50.81513 | 5.25742 | 4039 ft | 154 kts | 314° |
| 2026-04-22 17:14 | 50.82180 | 5.24415 | 4039 ft | 153 kts | 315° |
| 2026-04-22 17:14 | 50.82846 | 5.23097 | 4033 ft | 153 kts | 315° |
| 2026-04-22 17:15 | 50.83283 | 5.22221 | 4035 ft | 153 kts | 314° |
| 2026-04-22 17:15 | 50.84164 | 5.20455 | 4035 ft | 152 kts | 315° |
| 2026-04-22 17:15 | 50.84821 | 5.19141 | 4038 ft | 153 kts | 315° |
| 2026-04-22 17:15 | 50.85489 | 5.17815 | 4034 ft | 154 kts | 314° |
| 2026-04-22 17:16 | 50.86155 | 5.16479 | 4038 ft | 153 kts | 314° |
| 2026-04-22 17:16 | 50.86820 | 5.15150 | 4043 ft | 156 kts | 314° |
| 2026-04-22 17:16 | 50.87498 | 5.13792 | 4035 ft | 157 kts | 316° |
| 2026-04-22 17:16 | 50.88300 | 5.12686 | 4037 ft | 154 kts | 329° |
| 2026-04-22 17:17 | 50.89158 | 5.11661 | 4034 ft | 154 kts | 330° |
| 2026-04-22 17:17 | 50.90019 | 5.10636 | 4034 ft | 156 kts | 330° |
| 2026-04-22 17:17 | 50.90885 | 5.09593 | 4035 ft | 156 kts | 329° |
| 2026-04-22 17:17 | 50.91747 | 5.08554 | 4038 ft | 156 kts | 329° |
| 2026-04-22 17:18 | 50.92611 | 5.07512 | 4031 ft | 155 kts | 329° |
| 2026-04-22 17:18 | 50.93464 | 5.06485 | 4035 ft | 154 kts | 329° |
| 2026-04-22 17:18 | 50.94315 | 5.05461 | 4030 ft | 153 kts | 329° |
| 2026-04-22 17:18 | 50.95159 | 5.04441 | 4032 ft | 152 kts | 329° |
| 2026-04-22 17:19 | 50.96837 | 5.02419 | 4041 ft | 152 kts | 329° |
| 2026-04-22 17:19 | 50.98515 | 5.00399 | 4031 ft | 151 kts | 329° |
| 2026-04-22 17:20 | 51.00188 | 4.98375 | 4041 ft | 151 kts | 329° |
| 2026-04-22 17:20 | 51.01853 | 4.96363 | 4031 ft | 150 kts | 329° |
| 2026-04-22 17:21 | 51.02689 | 4.95352 | 3989 ft | 152 kts | 329° |
| 2026-04-22 17:21 | 51.04353 | 4.93336 | 3996 ft | 150 kts | 329° |
| 2026-04-22 17:22 | 51.06027 | 4.91307 | 3994 ft | 151 kts | 329° |
| 2026-04-22 17:22 | 51.06863 | 4.90292 | 3993 ft | 151 kts | 329° |
| 2026-04-22 17:22 | 51.08548 | 4.88255 | 3992 ft | 152 kts | 329° |
| 2026-04-22 17:23 | 51.09391 | 4.87233 | 3995 ft | 153 kts | 329° |
| 2026-04-22 17:23 | 51.11081 | 4.85172 | 3990 ft | 153 kts | 329° |
| 2026-04-22 17:23 | 51.11830 | 4.83942 | 3982 ft | 159 kts | 307° |
| 2026-04-22 17:24 | 51.12247 | 4.82295 | 3980 ft | 161 kts | 292° |
| 2026-04-22 17:24 | 51.12577 | 4.80595 | 3984 ft | 161 kts | 291° |
| 2026-04-22 17:24 | 51.12905 | 4.78893 | 3982 ft | 161 kts | 291° |
| 2026-04-22 17:24 | 51.13239 | 4.77191 | 3985 ft | 161 kts | 291° |
| 2026-04-22 17:25 | 51.13568 | 4.75507 | 3987 ft | 162 kts | 291° |
| 2026-04-22 17:25 | 51.13903 | 4.73787 | 3986 ft | 164 kts | 291° |
| 2026-04-22 17:25 | 51.14241 | 4.72066 | 3982 ft | 162 kts | 291° |
| 2026-04-22 17:25 | 51.14575 | 4.70358 | 3982 ft | 160 kts | 291° |
| 2026-04-22 17:26 | 51.14903 | 4.68660 | 3983 ft | 161 kts | 291° |
| 2026-04-22 17:26 | 51.15232 | 4.66963 | 3984 ft | 161 kts | 291° |
| 2026-04-22 17:26 | 51.15567 | 4.65256 | 3980 ft | 162 kts | 291° |
| 2026-04-22 17:26 | 51.15901 | 4.63542 | 3981 ft | 162 kts | 291° |
| 2026-04-22 17:27 | 51.16125 | 4.62388 | 3985 ft | 162 kts | 291° |
| 2026-04-22 17:27 | 51.16565 | 4.60116 | 3987 ft | 162 kts | 291° |
| 2026-04-22 17:27 | 51.16899 | 4.58392 | 3982 ft | 162 kts | 291° |
| 2026-04-22 17:27 | 51.17231 | 4.56674 | 3981 ft | 162 kts | 290° |
| 2026-04-22 17:28 | 51.17563 | 4.54959 | 3982 ft | 160 kts | 290° |
| 2026-04-22 17:28 | 51.17883 | 4.53292 | 3979 ft | 155 kts | 290° |
| 2026-04-22 17:28 | 51.18197 | 4.51663 | 3982 ft | 153 kts | 290° |
| 2026-04-22 17:28 | 51.18517 | 4.50053 | 3982 ft | 152 kts | 292° |
| 2026-04-22 17:29 | 51.18845 | 4.48457 | 3982 ft | 152 kts | 292° |
| 2026-04-22 17:29 | 51.19175 | 4.46851 | 3985 ft | 153 kts | 292° |
| 2026-04-22 17:29 | 51.19504 | 4.45233 | 3985 ft | 154 kts | 292° |
| 2026-04-22 17:29 | 51.19833 | 4.43620 | 3984 ft | 155 kts | 292° |
| 2026-04-22 17:30 | 51.20060 | 4.42513 | 3917 ft | 156 kts | 291° |
| 2026-04-22 17:30 | 51.20499 | 4.40350 | 3654 ft | 154 kts | 292° |
| 2026-04-22 17:30 | 51.20827 | 4.38737 | 3442 ft | 151 kts | 291° |
| 2026-04-22 17:30 | 51.21147 | 4.37143 | 3227 ft | 150 kts | 292° |
| 2026-04-22 17:31 | 51.21356 | 4.36100 | 3095 ft | 148 kts | 293° |
| 2026-04-22 17:31 | 51.21672 | 4.34531 | 2896 ft | 149 kts | 292° |
| 2026-04-22 17:31 | 51.21986 | 4.32956 | 2706 ft | 142 kts | 290° |
| 2026-04-22 17:31 | 51.21939 | 4.31430 | 2465 ft | 141 kts | 248° |
| 2026-04-22 17:32 | 51.21308 | 4.30330 | 2277 ft | 131 kts | 202° |
| 2026-04-22 17:32 | 51.20470 | 4.30122 | 2108 ft | 117 kts | 163° |
| 2026-04-22 17:32 | 51.19781 | 4.30626 | 1985 ft | 103 kts | 131° |
| 2026-04-22 17:32 | 51.19387 | 4.31534 | 1833 ft | 101 kts | 105° |
| 2026-04-22 17:33 | 51.19317 | 4.32631 | 1683 ft | 100 kts | 80° |
| 2026-04-22 17:33 | 51.19565 | 4.33655 | 1551 ft | 99 kts | 63° |
| 2026-04-22 17:33 | 51.19885 | 4.34609 | 1414 ft | 96 kts | 62° |
| 2026-04-22 17:33 | 51.20214 | 4.35517 | 1266 ft | 93 kts | 58° |
| 2026-04-22 17:34 | 51.20499 | 4.36412 | 1144 ft | 90 kts | 62° |
| 2026-04-22 17:34 | 51.20781 | 4.37322 | 998 ft | 93 kts | 70° |
| 2026-04-22 17:34 | 51.20810 | 4.38350 | 813 ft | 95 kts | 95° |
| 2026-04-22 17:34 | 51.20621 | 4.39217 | 727 ft | 72 kts | 100° |
| 2026-04-22 17:35 | 51.20455 | 4.39926 | 711 ft | 67 kts | 100° |
| 2026-04-22 17:35 | 51.20285 | 4.40643 | 701 ft | 71 kts | 113° |
| 2026-04-22 17:35 | 51.20110 | 4.41378 | 700 ft | 72 kts | 110° |
| 2026-04-22 17:35 | 51.19932 | 4.42144 | 659 ft | 76 kts | 112° |
| 2026-04-22 17:36 | 51.19744 | 4.42946 | 541 ft | 78 kts | 112° |
| 2026-04-22 17:36 | 51.19564 | 4.43758 | 384 ft | 77 kts | 111° |
| 2026-04-22 17:36 | 51.19389 | 4.44550 | 211 ft | 74 kts | 112° |
| 2026-04-22 17:36 | 51.19227 | 4.45291 | 89 ft | 68 kts | 110° |
| 2026-04-22 17:37 | 51.19082 | 4.45938 | 33 ft | 47 kts | 105° |
| 2026-04-22 17:37 | 51.19000 | 4.46305 | 36 ft | 27 kts | 111° |
| 2026-04-22 17:37 | 51.18933 | 4.46600 | 37 ft | 30 kts | 109° |
| 2026-04-22 17:37 | 51.18863 | 4.46915 | 34 ft | 28 kts | 108° |
| 2026-04-22 17:38 | 51.18809 | 4.47112 | 34 ft | 11 kts | 152° |
| 2026-04-22 17:38 | 51.18730 | 4.47111 | 35 ft | 9 kts | 165° |
| 2026-04-22 17:38 | 51.18658 | 4.47047 | 35 ft | 17 kts | 228° |
| 2026-04-22 17:38 | 51.18592 | 4.46873 | 35 ft | 18 kts | 248° |
| 2026-04-22 17:39 | 51.18576 | 4.46696 | 35 ft | 17 kts | 271° |
| 2026-04-22 17:39 | 51.18598 | 4.46517 | 35 ft | 14 kts | 283° |
| 2026-04-22 17:39 | 51.18646 | 4.46211 | 35 ft | 15 kts | 285° |
| 2026-04-22 17:40 | 51.18670 | 4.46063 | 35 ft | 13 kts | 284° |
| 2026-04-22 17:40 | 51.18697 | 4.45891 | 35 ft | 18 kts | 283° |
| 2026-04-22 17:40 | 51.18729 | 4.45691 | 35 ft | 18 kts | 284° |
| 2026-04-22 17:40 | 51.18755 | 4.45525 | 35 ft | 11 kts | 283° |
| 2026-04-22 17:41 | 51.18757 | 4.45454 | 34 ft | 7 kts | 232° |
| 2026-04-22 17:41 | 51.18748 | 4.45399 | 35 ft | 3 kts | 346° |
| 2026-04-22 17:41 | 51.18773 | 4.45380 | 34 ft | 3 kts | 327° |
| 2026-04-22 17:41 | 51.18777 | 4.45377 | 34 ft | 0 kts | 329° |